createdAt,value
2018-08-19T00:02:09.961Z,2.90
2018-08-19T00:04:39.388Z,2.40
2018-08-19T00:07:08.921Z,2.57
2018-08-19T00:09:38.497Z,2.87
2018-08-19T00:12:07.917Z,2.83
2018-08-19T00:14:37.656Z,2.80
2018-08-19T00:17:07.135Z,2.63
2018-08-19T00:19:36.702Z,2.83
2018-08-19T00:22:06.151Z,2.40
2018-08-19T00:24:35.782Z,2.93
2018-08-19T00:27:05.220Z,2.80
2018-08-19T00:29:41.810Z,2.93
2018-08-19T00:32:11.416Z,2.40
2018-08-19T00:34:41.612Z,3.03
2018-08-19T00:37:11.814Z,2.50
2018-08-19T00:39:43.158Z,2.60
2018-08-19T00:42:13.131Z,2.70
2018-08-19T00:44:43.683Z,3.00
2018-08-19T00:47:13.979Z,2.70
2018-08-19T00:49:44.612Z,2.93
2018-08-19T00:52:15.132Z,2.50
2018-08-19T00:54:45.410Z,2.60
2018-08-19T00:57:15.732Z,2.60
2018-08-19T00:59:45.602Z,2.47
2018-08-19T01:02:15.913Z,2.83
2018-08-19T01:04:46.327Z,3.30
2018-08-19T01:07:15.788Z,2.80
2018-08-19T01:09:45.743Z,2.90
2018-08-19T01:12:15.742Z,2.70
2018-08-19T01:14:46.036Z,2.73
2018-08-19T01:17:15.473Z,3.07
2018-08-19T01:19:45.145Z,2.43
2018-08-19T01:22:14.526Z,2.87
2018-08-19T01:24:43.930Z,3.27
2018-08-19T01:27:13.556Z,3.00
2018-08-19T01:29:44.811Z,2.90
2018-08-19T01:32:14.988Z,2.83
2018-08-19T01:34:46.610Z,3.07
2018-08-19T01:37:16.216Z,2.50
2018-08-19T01:39:45.733Z,3.23
2018-08-19T01:42:15.103Z,2.90
2018-08-19T01:44:44.452Z,3.40
2018-08-19T01:47:13.809Z,2.83
2018-08-19T01:49:43.247Z,3.03
2018-08-19T01:52:12.637Z,3.43
2018-08-19T01:54:42.022Z,3.10
2018-08-19T01:57:11.364Z,3.03
2018-08-19T01:59:40.792Z,3.20
2018-08-19T02:02:10.194Z,3.40
2018-08-19T02:04:56.870Z,2.87
2018-08-19T02:07:26.770Z,3.20
2018-08-19T02:10:03.674Z,3.10
2018-08-19T02:12:38.989Z,2.93
2018-08-19T02:15:09.515Z,2.80
2018-08-19T02:17:48.613Z,2.93
2018-08-19T02:20:18.203Z,3.00
2018-08-19T02:22:52.012Z,2.97
2018-08-19T02:25:21.393Z,3.17
2018-08-19T02:27:50.792Z,2.90
2018-08-19T02:30:21.257Z,3.20
2018-08-19T02:32:53.440Z,3.43
2018-08-19T02:35:22.892Z,3.20
2018-08-19T02:37:52.319Z,3.30
2018-08-19T02:40:32.301Z,2.80
2018-08-19T02:43:01.934Z,3.07
2018-08-19T02:45:31.297Z,3.30
2018-08-19T02:48:00.644Z,3.27
2018-08-19T02:50:30.061Z,3.20
2018-08-19T02:52:59.433Z,3.37
2018-08-19T02:55:28.765Z,3.23
2018-08-19T02:58:03.395Z,3.73
2018-08-19T03:00:33.804Z,3.73
2018-08-19T03:03:03.215Z,3.83
2018-08-19T03:05:33.053Z,3.37
2018-08-19T03:08:04.504Z,3.27
2018-08-19T03:10:35.341Z,3.50
2018-08-19T03:13:04.743Z,3.30
2018-08-19T03:15:34.165Z,3.40
2018-08-19T03:18:03.565Z,3.27
2018-08-19T03:20:32.921Z,3.40
2018-08-19T03:23:02.269Z,3.23
2018-08-19T03:25:31.591Z,3.10
2018-08-19T03:28:00.956Z,3.00
2018-08-19T03:30:30.357Z,3.20
2018-08-19T03:33:00.500Z,3.50
2018-08-19T03:35:29.844Z,3.47
2018-08-19T03:38:03.346Z,3.57
2018-08-19T03:40:33.738Z,3.47
2018-08-19T03:43:03.084Z,3.37
2018-08-19T03:45:32.957Z,3.40
2018-08-19T03:48:03.116Z,3.30
2018-08-19T03:50:36.188Z,3.47
2018-08-19T03:53:06.706Z,3.73
2018-08-19T03:55:39.081Z,3.80
2018-08-19T03:58:10.663Z,3.80
2018-08-19T04:00:43.787Z,3.57
2018-08-19T04:03:20.703Z,3.93
2018-08-19T04:05:54.993Z,3.47
2018-08-19T04:08:34.508Z,4.10
2018-08-19T04:11:09.058Z,3.60
2018-08-19T04:13:41.500Z,3.13
2018-08-19T04:16:12.824Z,3.23
2018-08-19T04:18:43.948Z,3.70
2018-08-19T04:21:17.654Z,3.63
2018-08-19T04:23:50.008Z,3.67
2018-08-19T04:26:19.361Z,3.80
2018-08-19T04:28:48.749Z,3.63
2018-08-19T04:31:23.144Z,3.30
2018-08-19T04:33:52.621Z,3.67
2018-08-19T04:36:23.289Z,3.47
2018-08-19T04:38:52.744Z,3.50
2018-08-19T04:41:22.581Z,3.23
2018-08-19T04:43:52.265Z,4.03
2018-08-19T04:46:21.638Z,3.53
2018-08-19T04:48:51.030Z,3.87
2018-08-19T04:51:20.501Z,3.60
2018-08-19T04:53:49.874Z,3.73
2018-08-19T04:56:19.923Z,3.90
2018-08-19T04:58:49.377Z,3.37
2018-08-19T05:01:18.929Z,4.00
2018-08-19T05:03:48.977Z,3.63
2018-08-19T05:06:18.374Z,4.37
2018-08-19T05:08:47.693Z,3.73
2018-08-19T05:11:17.561Z,3.67
2018-08-19T05:13:46.970Z,3.47
2018-08-19T05:16:16.321Z,3.20
2018-08-19T05:18:53.072Z,3.63
2018-08-19T05:21:25.725Z,3.43
2018-08-19T05:23:55.099Z,4.00
2018-08-19T05:26:24.428Z,3.57
2018-08-19T05:29:05.521Z,3.43
2018-08-19T05:31:49.384Z,3.70
2018-08-19T05:34:24.732Z,3.43
2018-08-19T05:36:54.140Z,3.60
2018-08-19T05:39:23.569Z,3.60
2018-08-19T05:42:04.547Z,3.30
2018-08-19T05:44:36.663Z,3.57
2018-08-19T05:47:10.867Z,3.37
2018-08-19T05:49:42.712Z,3.83
2018-08-19T05:52:20.335Z,3.57
2018-08-19T05:54:56.072Z,3.50
2018-08-19T05:57:25.440Z,2.93
2018-08-19T05:59:55.405Z,3.67
2018-08-19T06:02:30.537Z,3.50
2018-08-19T06:05:03.219Z,3.50
2018-08-19T06:07:32.796Z,3.37
2018-08-19T06:10:02.205Z,3.37
2018-08-19T06:12:32.192Z,2.90
2018-08-19T06:15:02.360Z,2.83
2018-08-19T06:17:31.750Z,3.17
2018-08-19T06:20:01.248Z,3.00
2018-08-19T06:22:39.912Z,3.07
2018-08-19T06:25:10.010Z,3.07
2018-08-19T06:27:44.219Z,2.97
2018-08-19T06:30:14.644Z,3.20
2018-08-19T06:32:44.073Z,2.87
2018-08-19T06:35:13.970Z,2.90
2018-08-19T06:37:43.319Z,2.77
2018-08-19T06:40:14.924Z,2.57
2018-08-19T06:42:44.787Z,2.90
2018-08-19T06:45:14.757Z,2.60
2018-08-19T06:47:44.159Z,2.73
2018-08-19T06:50:22.980Z,2.67
2018-08-19T06:52:52.536Z,2.97
2018-08-19T06:55:22.145Z,2.83
2018-08-19T06:57:51.548Z,2.57
2018-08-19T07:00:26.229Z,2.57
2018-08-19T07:02:56.752Z,2.70
2018-08-19T07:05:26.211Z,2.73
2018-08-19T07:07:55.585Z,2.60
2018-08-19T07:10:31.382Z,2.90
2018-08-19T07:13:05.751Z,2.43
2018-08-19T07:15:36.307Z,2.70
2018-08-19T07:18:06.159Z,2.50
2018-08-19T07:20:37.019Z,2.60
2018-08-19T07:23:06.895Z,2.70
2018-08-19T07:25:38.019Z,2.60
2018-08-19T07:28:09.058Z,2.57
2018-08-19T07:30:38.826Z,2.43
2018-08-19T07:33:08.561Z,2.70
2018-08-19T07:35:38.336Z,3.03
2018-08-19T07:38:07.915Z,2.90
2018-08-19T07:40:37.382Z,2.87
2018-08-19T07:43:07.460Z,2.70
2018-08-19T07:45:36.986Z,2.80
2018-08-19T07:48:06.871Z,2.87
2018-08-19T07:50:36.251Z,2.70
2018-08-19T07:53:05.884Z,2.93
2018-08-19T07:55:35.257Z,2.97
2018-08-19T07:58:04.740Z,2.90
2018-08-19T08:00:41.024Z,2.70
2018-08-19T08:03:10.765Z,2.90
2018-08-19T08:05:47.615Z,2.80
2018-08-19T08:08:17.168Z,3.10
2018-08-19T08:10:46.980Z,2.40
2018-08-19T08:13:16.745Z,3.07
2018-08-19T08:15:51.295Z,2.93
2018-08-19T08:18:20.864Z,3.30
2018-08-19T08:20:50.748Z,2.97
2018-08-19T08:23:26.121Z,3.17
2018-08-19T08:25:55.787Z,3.20
2018-08-19T08:28:25.483Z,3.03
2018-08-19T08:30:55.302Z,2.80
2018-08-19T08:33:25.293Z,2.90
2018-08-19T08:35:57.200Z,2.70
2018-08-19T08:38:26.946Z,2.80
2018-08-19T08:40:57.104Z,3.00
2018-08-19T08:43:26.694Z,2.80
2018-08-19T08:45:58.559Z,2.80
2018-08-19T08:48:28.791Z,2.93
2018-08-19T08:50:58.465Z,2.80
2018-08-19T08:53:32.279Z,2.80
2018-08-19T08:56:01.943Z,3.00
2018-08-19T08:58:31.805Z,2.93
2018-08-19T09:01:01.556Z,2.60
2018-08-19T09:03:31.373Z,2.77
2018-08-19T09:06:01.961Z,2.60
2018-08-19T09:08:31.749Z,2.77
2018-08-19T09:11:05.151Z,2.50
2018-08-19T09:13:34.822Z,3.13
2018-08-19T09:16:04.504Z,3.00
2018-08-19T09:18:34.058Z,2.90
2018-08-19T09:21:04.745Z,2.67
2018-08-19T09:23:34.399Z,3.23
2018-08-19T09:26:05.421Z,2.93
2018-08-19T09:28:35.554Z,3.67
2018-08-19T09:31:08.099Z,2.87
2018-08-19T09:33:37.674Z,3.00
2018-08-19T09:36:08.041Z,3.35
2018-08-19T09:38:37.695Z,2.90
2018-08-19T09:41:07.655Z,3.00
2018-08-19T09:43:37.331Z,3.27
2018-08-19T09:46:07.328Z,3.05
2018-08-19T09:48:36.976Z,3.17
2018-08-19T09:51:11.133Z,3.17
2018-08-19T09:53:40.798Z,3.27
2018-08-19T09:56:11.433Z,3.10
2018-08-19T09:58:46.578Z,3.47
2018-08-19T10:01:20.367Z,3.10
2018-08-19T10:03:50.018Z,3.20
2018-08-19T10:06:19.635Z,3.22
2018-08-19T10:08:49.266Z,3.62
2018-08-19T10:11:18.883Z,3.17
2018-08-19T10:13:52.788Z,3.67
2018-08-19T10:16:32.859Z,3.70
2018-08-19T10:19:02.433Z,3.00
2018-08-19T10:21:32.284Z,3.50
2018-08-19T10:24:11.840Z,3.50
2018-08-19T10:26:41.418Z,3.30
2018-08-19T10:29:11.000Z,3.60
2018-08-19T10:31:40.818Z,3.02
2018-08-19T10:34:11.748Z,3.30
2018-08-19T10:36:42.176Z,3.98
2018-08-19T10:39:15.556Z,3.62
2018-08-19T10:41:45.282Z,3.47
2018-08-19T10:44:14.778Z,3.80
2018-08-19T10:46:44.517Z,3.55
2018-08-19T10:49:13.962Z,3.77
2018-08-19T10:51:44.672Z,3.80
2018-08-19T10:54:14.950Z,3.85
2018-08-19T10:56:44.391Z,5.28
2018-08-19T10:59:16.463Z,3.58
2018-08-19T11:01:46.008Z,3.80
2018-08-19T11:04:15.700Z,3.62
2018-08-19T11:06:45.847Z,4.20
2018-08-19T11:09:15.781Z,3.55
2018-08-19T11:11:45.322Z,4.10
2018-08-19T11:14:15.097Z,4.30
2018-08-19T11:16:44.683Z,3.80
2018-08-19T11:19:14.965Z,3.85
2018-08-19T11:21:44.505Z,3.52
2018-08-19T11:24:27.211Z,3.90
2018-08-19T11:27:01.629Z,3.95
2018-08-19T11:29:35.837Z,3.77
2018-08-19T11:32:06.483Z,3.65
2018-08-19T11:34:37.421Z,3.90
2018-08-19T11:37:07.879Z,4.10
2018-08-19T11:39:44.364Z,4.40
2018-08-19T11:42:14.539Z,4.22
2018-08-19T11:44:44.907Z,4.12
2018-08-19T11:47:15.835Z,3.75
2018-08-19T11:49:46.175Z,3.62
2018-08-19T11:52:16.578Z,3.80
2018-08-19T11:54:47.047Z,4.17
2018-08-19T11:57:17.060Z,3.90
2018-08-19T11:59:47.897Z,3.60
2018-08-19T12:02:20.298Z,3.92
2018-08-19T12:04:50.705Z,3.90
2018-08-19T12:07:20.993Z,4.03
2018-08-19T12:09:56.952Z,3.80
2018-08-19T12:12:45.412Z,3.87
2018-08-19T12:15:14.900Z,4.28
2018-08-19T12:17:46.429Z,4.28
2018-08-19T12:20:28.804Z,4.20
2018-08-19T12:22:59.595Z,4.03
2018-08-19T12:25:30.605Z,3.90
2018-08-19T12:28:00.997Z,3.60
2018-08-19T12:30:34.393Z,3.50
2018-08-19T12:33:15.378Z,3.92
2018-08-19T12:35:45.971Z,3.95
2018-08-19T12:38:16.259Z,4.20
2018-08-19T12:40:48.491Z,4.17
2018-08-19T12:43:18.045Z,3.65
2018-08-19T12:45:49.041Z,4.20
2018-08-19T12:48:19.201Z,3.65
2018-08-19T12:50:54.512Z,4.12
2018-08-19T12:53:23.942Z,4.10
2018-08-19T12:55:53.485Z,3.95
2018-08-19T12:58:22.945Z,4.10
2018-08-19T13:00:52.592Z,3.75
2018-08-19T13:03:25.467Z,3.45
2018-08-19T13:06:08.278Z,4.00
2018-08-19T13:08:37.915Z,3.58
2018-08-19T13:11:08.152Z,3.67
2018-08-19T13:13:37.659Z,3.55
2018-08-19T13:16:07.263Z,3.47
2018-08-19T13:18:41.163Z,3.22
2018-08-19T13:21:17.165Z,4.03
2018-08-19T13:23:47.094Z,3.37
2018-08-19T13:26:16.737Z,3.40
2018-08-19T13:28:55.355Z,3.40
2018-08-19T13:31:31.984Z,3.70
2018-08-19T13:34:02.426Z,3.30
2018-08-19T13:36:32.356Z,3.62
2018-08-19T13:39:01.972Z,3.25
2018-08-19T13:41:31.751Z,3.40
2018-08-19T13:44:01.431Z,3.27
2018-08-19T13:46:32.178Z,3.40
2018-08-19T13:49:02.827Z,3.12
2018-08-19T13:51:32.462Z,2.98
2018-08-19T13:54:02.475Z,3.37
2018-08-19T13:56:32.099Z,3.12
2018-08-19T13:59:01.748Z,3.00
2018-08-19T14:01:31.456Z,3.08
2018-08-19T14:04:01.205Z,2.87
2018-08-19T14:06:30.999Z,2.75
2018-08-19T14:09:03.002Z,2.80
2018-08-19T14:11:35.138Z,2.80
2018-08-19T14:14:06.560Z,2.55
2018-08-19T14:16:41.797Z,2.17
2018-08-19T14:19:12.440Z,2.87
2018-08-19T14:21:43.136Z,2.40
2018-08-19T14:24:16.802Z,2.47
2018-08-19T14:26:48.493Z,2.62
2018-08-19T14:29:24.492Z,2.33
2018-08-19T14:31:56.382Z,2.35
2018-08-19T14:34:27.690Z,2.20
2018-08-19T14:36:58.771Z,2.33
2018-08-19T14:39:29.928Z,2.30
2018-08-19T14:42:01.938Z,2.10
2018-08-19T14:44:32.462Z,2.25
2018-08-19T14:47:03.313Z,2.40
2018-08-19T14:49:35.222Z,2.20
2018-08-19T14:52:06.051Z,2.40
2018-08-19T14:54:35.768Z,2.17
2018-08-19T14:57:05.537Z,2.15
2018-08-19T14:59:36.323Z,2.25
2018-08-19T15:02:06.033Z,2.00
2018-08-19T15:04:38.945Z,2.10
2018-08-19T15:07:08.440Z,2.40
2018-08-19T15:09:38.160Z,2.17
2018-08-19T15:12:15.369Z,2.00
2018-08-19T15:14:44.756Z,2.45
2018-08-19T15:17:14.752Z,2.05
2018-08-19T15:19:47.797Z,2.30
2018-08-19T15:22:17.441Z,2.27
2018-08-19T15:24:46.812Z,2.22
2018-08-19T15:27:16.513Z,2.08
2018-08-19T15:29:54.093Z,1.82
2018-08-19T15:32:25.092Z,2.30
2018-08-19T15:34:54.754Z,2.20
2018-08-19T15:37:24.255Z,2.15
2018-08-19T15:39:53.946Z,2.15
2018-08-19T15:42:23.547Z,2.12
2018-08-19T15:44:53.372Z,2.20
2018-08-19T15:47:23.271Z,2.00
2018-08-19T15:50:05.366Z,2.20
2018-08-19T15:52:35.014Z,2.20
2018-08-19T15:55:04.624Z,2.47
2018-08-19T15:57:34.300Z,2.58
2018-08-19T16:00:07.797Z,2.80
2018-08-19T16:02:41.234Z,2.95
2018-08-19T16:05:17.653Z,2.58
2018-08-19T16:07:48.696Z,2.90
2018-08-19T16:10:18.713Z,3.10
2018-08-19T16:12:52.402Z,3.20
2018-08-19T16:15:24.903Z,2.92
2018-08-19T16:17:56.662Z,3.08
2018-08-19T16:20:26.759Z,3.17
2018-08-19T16:28:02.071Z,2.90
2018-08-19T16:30:34.100Z,2.60
2018-08-19T16:33:06.097Z,2.70
2018-08-19T16:35:43.773Z,2.75
2018-08-19T16:38:15.644Z,2.90
2018-08-19T16:40:51.532Z,3.00
2018-08-19T16:43:28.240Z,3.05
2018-08-19T16:45:58.263Z,3.12
2018-08-19T16:48:27.823Z,3.27
2018-08-19T16:50:57.598Z,3.12
2018-08-19T16:53:27.235Z,3.30
2018-08-19T16:55:57.017Z,3.08
2018-08-19T16:58:26.944Z,2.80
2018-08-19T17:00:56.642Z,2.85
2018-08-19T17:03:34.160Z,3.00
2018-08-19T17:06:04.656Z,2.90
2018-08-19T17:08:34.183Z,3.02
2018-08-19T17:11:04.052Z,2.75
2018-08-19T17:13:33.644Z,3.20
2018-08-19T17:16:03.368Z,2.75
2018-08-19T17:18:33.183Z,2.80
2018-08-19T17:21:03.026Z,2.47
2018-08-19T17:23:33.034Z,2.90
2018-08-19T17:26:04.050Z,2.75
2018-08-19T17:28:33.658Z,3.27
2018-08-19T17:31:03.262Z,3.02
2018-08-19T17:33:32.771Z,2.67
2018-08-19T17:36:02.669Z,2.75
2018-08-19T17:38:34.353Z,3.30
2018-08-19T17:41:04.469Z,2.70
2018-08-19T17:43:39.927Z,3.00
2018-08-19T17:46:12.341Z,3.10
2018-08-19T17:48:43.220Z,2.90
2018-08-19T17:51:24.451Z,2.83
2018-08-19T17:53:54.058Z,2.93
2018-08-19T17:56:23.642Z,2.57
2018-08-19T17:58:53.277Z,3.03
2018-08-19T18:01:23.277Z,2.80
2018-08-19T18:03:52.841Z,2.90
2018-08-19T18:06:22.478Z,3.23
2018-08-19T18:08:52.990Z,2.97
2018-08-19T18:11:22.938Z,2.83
2018-08-19T18:13:52.598Z,2.70
2018-08-19T18:16:23.080Z,3.07
2018-08-19T18:18:53.198Z,2.93
2018-08-19T18:21:24.056Z,2.90
2018-08-19T18:23:53.595Z,2.90
2018-08-19T18:26:23.181Z,2.90
2018-08-19T18:28:52.788Z,3.00
2018-08-19T18:31:23.427Z,3.00
2018-08-19T18:33:58.164Z,2.93
2018-08-19T18:36:29.483Z,3.20
2018-08-19T18:38:59.507Z,3.00
2018-08-19T18:41:39.990Z,2.67
2018-08-19T18:44:11.196Z,2.67
2018-08-19T18:46:40.839Z,2.90
2018-08-19T18:49:12.218Z,2.73
2018-08-19T18:51:43.503Z,2.83
2018-08-19T18:54:19.980Z,2.80
2018-08-19T18:56:49.611Z,3.10
2018-08-19T18:59:19.232Z,2.97
2018-08-19T19:01:48.877Z,2.67
2018-08-19T19:04:18.472Z,2.47
2018-08-19T19:06:48.132Z,2.70
2018-08-19T19:09:17.813Z,2.67
2018-08-19T19:11:49.725Z,2.67
2018-08-19T19:14:21.265Z,2.87
2018-08-19T19:16:55.355Z,2.90
2018-08-19T19:19:26.805Z,2.60
2018-08-19T19:22:00.776Z,2.87
2018-08-19T19:24:35.127Z,2.97
2018-08-19T19:27:04.779Z,2.70
2018-08-19T19:29:34.410Z,2.93
2018-08-19T19:32:14.668Z,2.83
2018-08-19T19:34:44.155Z,2.60
2018-08-19T19:37:13.808Z,3.00
2018-08-19T19:39:43.781Z,2.97
2018-08-19T19:42:13.688Z,2.80
2018-08-19T19:44:43.120Z,2.90
2018-08-19T19:47:13.636Z,2.80
2018-08-19T19:49:48.711Z,2.60
2018-08-19T19:52:18.160Z,2.77
2018-08-19T19:54:47.504Z,2.50
2018-08-19T19:57:16.916Z,2.73
2018-08-19T19:59:46.500Z,2.67
2018-08-19T20:02:23.006Z,2.70
2018-08-19T20:04:52.529Z,2.67
2018-08-19T20:07:22.078Z,2.60
2018-08-19T20:09:52.756Z,2.73
2018-08-19T20:12:28.914Z,3.00
2018-08-19T20:15:00.878Z,2.60
2018-08-19T20:17:30.572Z,2.77
2018-08-19T20:20:00.360Z,2.60
2018-08-19T20:22:30.540Z,2.50
2018-08-19T20:25:00.174Z,2.80
2018-08-19T20:27:29.560Z,3.17
2018-08-19T20:29:58.929Z,3.10
2018-08-19T20:32:28.308Z,2.83
2018-08-19T20:34:57.642Z,2.80
2018-08-19T20:37:28.353Z,2.60
2018-08-19T20:39:57.810Z,2.77
2018-08-19T20:42:27.168Z,2.73
2018-08-19T20:44:56.504Z,2.80
2018-08-19T20:47:25.832Z,2.60
2018-08-19T20:49:56.177Z,2.90
2018-08-19T20:52:38.947Z,3.10
2018-08-19T20:55:08.318Z,2.60
2018-08-19T20:57:37.655Z,2.57
2018-08-19T21:00:08.182Z,3.00
2018-08-19T21:02:37.582Z,2.60
2018-08-19T21:05:07.089Z,2.97
2018-08-19T21:07:36.583Z,2.90
2018-08-19T21:10:06.812Z,2.70
2018-08-19T21:12:36.140Z,2.63
2018-08-19T21:15:05.620Z,2.80
2018-08-19T21:17:34.921Z,2.63
2018-08-19T21:20:04.957Z,2.30
2018-08-19T21:22:34.822Z,2.80
2018-08-19T21:25:04.254Z,2.33
2018-08-19T21:27:33.631Z,2.30
2018-08-19T21:30:03.156Z,2.40
2018-08-19T21:32:32.461Z,2.87
2018-08-19T21:35:01.813Z,2.30
2018-08-19T21:37:38.473Z,2.50
2018-08-19T21:40:07.845Z,2.90
2018-08-19T21:42:48.045Z,2.40
2018-08-19T21:45:17.395Z,2.73
2018-08-19T21:47:46.728Z,2.57
2018-08-19T21:50:16.209Z,2.53
2018-08-19T21:53:01.071Z,2.60
2018-08-19T21:55:33.248Z,2.67
2018-08-19T21:58:03.101Z,2.90
2018-08-19T22:00:38.448Z,2.70
2018-08-19T22:03:15.852Z,2.87
2018-08-19T22:05:45.540Z,2.53
2018-08-19T22:08:15.040Z,2.53
2018-08-19T22:10:45.469Z,2.20
2018-08-19T22:13:14.901Z,2.60
2018-08-19T22:15:45.399Z,2.90
2018-08-19T22:18:17.475Z,2.40
2018-08-19T22:21:00.415Z,2.70
2018-08-19T22:23:35.085Z,2.63
2018-08-19T22:26:04.616Z,2.63
2018-08-19T22:28:34.428Z,2.43
2018-08-19T22:31:15.411Z,2.73
2018-08-19T22:33:46.752Z,2.70
2018-08-19T22:36:16.260Z,3.00
2018-08-19T22:38:46.140Z,2.30
2018-08-19T22:41:19.215Z,2.73
2018-08-19T22:43:48.633Z,3.10
2018-08-19T22:46:18.051Z,2.67
2018-08-19T22:48:47.477Z,2.33
2018-08-19T22:51:16.957Z,2.43
2018-08-19T22:53:46.453Z,2.40
2018-08-19T22:56:16.448Z,2.80
2018-08-19T22:58:45.810Z,2.53
2018-08-19T23:01:15.311Z,2.43
2018-08-19T23:03:44.677Z,3.17
2018-08-19T23:06:14.061Z,2.60
2018-08-19T23:08:43.415Z,2.57
2018-08-19T23:11:13.804Z,2.80
2018-08-19T23:13:53.868Z,2.17
2018-08-19T23:16:23.218Z,2.87
2018-08-19T23:18:52.573Z,2.50
2018-08-19T23:21:21.943Z,2.53
2018-08-19T23:23:51.472Z,2.53
2018-08-19T23:26:21.656Z,2.50
2018-08-19T23:28:51.018Z,2.90
2018-08-19T23:31:20.445Z,2.83
2018-08-19T23:33:49.780Z,2.70
2018-08-19T23:36:19.110Z,2.40
2018-08-19T23:38:48.500Z,2.50
2018-08-19T23:41:17.854Z,2.47
2018-08-19T23:43:47.189Z,2.43
2018-08-19T23:46:16.535Z,2.50
2018-08-19T23:48:45.853Z,2.63
2018-08-19T23:51:19.332Z,2.57
2018-08-19T23:53:48.667Z,2.90
2018-08-19T23:56:18.856Z,2.97
2018-08-19T23:58:48.806Z,2.53
